LiveATC.Net - Listen to live air traffic control over the Internet!


ICAO: 2B1  IATA: 2B1   Airport: Cape Cod Airport
City: Marstons Mills   State/Province: Massachusetts
Country: United States   Continent: North America
KFMH METAR Weather: KFMH 270945Z 27008KT 8SM OVC003 15/15 A3006
2B1 Flight Activity (FlightAware)
2B1 Airport Info   (iFlightPlanner)
2B1 VFR Sectional Chart   (iFlightPlanner) 
2B1 IFR Low Chart   (iFlightPlanner) 

2B1 CTAF
Feed Status: UP   Listeners: 0
Listen in your browser - HTML5 player (in browser, HTML5)
Click here to listen with your own player (launches your MP3 player)
Archive Access: 2B1 CTAF
FacilityFrequency
Marstons Mills CTAF122.900

NOTICE

Unauthorized use prohibited. See LiveATC.net Terms of Service


Airport/ARTCC Code
Frequency Search
(e.g., 124.400, 128.75)
Site-wide search
 


Browse Feeds
Top 50 Feeds
Coverage Map
Bad Weather Areas

LiveATC FAQ
Offer LiveATC feed
Contact LiveATC.net
Press Inquiries

LiveATC on iPhone
LiveATC on Android

Windows Phone
Windows 8/10

LiveATC Mobile
(Mobile browser)

ATC Audio Archives
Interesting Recordings

LiveATC Forums


Home Page
About LiveATC.net
Make a Donation
Terms of Use
Privacy Policy

Canadian Air Freqs

AIRMETs/SIGMETs

FAA Airport Status
Nat'l Airspace Status
Arrival Demand Charts


Server Software By:
Icecast.org
Liquidsoap